sensor_id;sensor_type;location;lat;lon;timestamp;P1;durP1;ratioP1;P2;durP2;ratioP2
46348;SDS011;32057;47.830;19.046;2022-10-19T00:01:18;2.00;;;1.85;;
46348;SDS011;32057;47.830;19.046;2022-10-19T00:03:46;2.17;;;1.90;;
46348;SDS011;32057;47.830;19.046;2022-10-19T00:08:38;2.67;;;1.60;;
46348;SDS011;32057;47.830;19.046;2022-10-19T00:11:04;3.40;;;2.67;;
46348;SDS011;32057;47.830;19.046;2022-10-19T00:13:29;4.78;;;2.10;;
46348;SDS011;32057;47.830;19.046;2022-10-19T00:15:55;2.88;;;2.08;;
46348;SDS011;32057;47.830;19.046;2022-10-19T00:18:20;3.20;;;2.58;;
46348;SDS011;32057;47.830;19.046;2022-10-19T00:20:46;3.08;;;2.65;;
46348;SDS011;32057;47.830;19.046;2022-10-19T00:23:11;2.67;;;2.30;;
46348;SDS011;32057;47.830;19.046;2022-10-19T00:25:37;2.40;;;2.20;;
46348;SDS011;32057;47.830;19.046;2022-10-19T00:28:02;3.15;;;2.55;;
46348;SDS011;32057;47.830;19.046;2022-10-19T00:30:28;2.92;;;2.35;;
46348;SDS011;32057;47.830;19.046;2022-10-19T00:32:53;3.08;;;2.75;;
46348;SDS011;32057;47.830;19.046;2022-10-19T00:35:19;4.18;;;3.50;;
46348;SDS011;32057;47.830;19.046;2022-10-19T00:37:44;1.98;;;1.75;;
46348;SDS011;32057;47.830;19.046;2022-10-19T00:40:10;4.80;;;2.40;;
46348;SDS011;32057;47.830;19.046;2022-10-19T00:42:35;2.83;;;2.53;;
46348;SDS011;32057;47.830;19.046;2022-10-19T00:45:03;3.17;;;2.88;;
46348;SDS011;32057;47.830;19.046;2022-10-19T00:47:35;4.80;;;2.42;;
46348;SDS011;32057;47.830;19.046;2022-10-19T00:50:01;6.03;;;2.50;;
46348;SDS011;32057;47.830;19.046;2022-10-19T00:52:27;2.83;;;2.53;;
46348;SDS011;32057;47.830;19.046;2022-10-19T00:54:53;2.20;;;2.08;;
46348;SDS011;32057;47.830;19.046;2022-10-19T00:57:20;3.90;;;3.33;;
46348;SDS011;32057;47.830;19.046;2022-10-19T00:59:47;3.05;;;2.75;;
46348;SDS011;32057;47.830;19.046;2022-10-19T01:02:13;4.50;;;2.33;;
46348;SDS011;32057;47.830;19.046;2022-10-19T01:04:39;3.03;;;2.35;;
46348;SDS011;32057;47.830;19.046;2022-10-19T01:07:10;4.40;;;2.83;;
46348;SDS011;32057;47.830;19.046;2022-10-19T01:09:36;3.42;;;1.70;;
46348;SDS011;32057;47.830;19.046;2022-10-19T01:17:21;1.88;;;1.75;;
46348;SDS011;32057;47.830;19.046;2022-10-19T01:26:13;2.95;;;2.67;;
46348;SDS011;32057;47.830;19.046;2022-10-19T01:31:47;3.20;;;2.90;;
46348;SDS011;32057;47.830;19.046;2022-10-19T01:34:27;3.40;;;2.47;;
46348;SDS011;32057;47.830;19.046;2022-10-19T01:37:16;3.20;;;2.80;;
46348;SDS011;32057;47.830;19.046;2022-10-19T01:39:52;4.10;;;3.03;;
46348;SDS011;32057;47.830;19.046;2022-10-19T01:45:20;3.83;;;2.22;;
46348;SDS011;32057;47.830;19.046;2022-10-19T01:48:09;2.42;;;2.22;;
46348;SDS011;32057;47.830;19.046;2022-10-19T01:50:41;3.03;;;2.72;;
46348;SDS011;32057;47.830;19.046;2022-10-19T01:53:12;3.08;;;2.65;;
46348;SDS011;32057;47.830;19.046;2022-10-19T01:55:42;3.35;;;2.92;;
46348;SDS011;32057;47.830;19.046;2022-10-19T01:58:12;2.85;;;2.65;;
46348;SDS011;32057;47.830;19.046;2022-10-19T02:00:41;3.80;;;2.72;;
46348;SDS011;32057;47.830;19.046;2022-10-19T02:03:09;2.90;;;2.10;;
46348;SDS011;32057;47.830;19.046;2022-10-19T02:05:36;3.92;;;2.88;;
46348;SDS011;32057;47.830;19.046;2022-10-19T02:08:14;5.85;;;2.65;;
46348;SDS011;32057;47.830;19.046;2022-10-19T02:10:44;2.53;;;2.15;;
46348;SDS011;32057;47.830;19.046;2022-10-19T02:13:11;3.78;;;3.22;;
46348;SDS011;32057;47.830;19.046;2022-10-19T02:15:39;4.20;;;3.03;;
46348;SDS011;32057;47.830;19.046;2022-10-19T02:18:08;3.50;;;2.92;;
46348;SDS011;32057;47.830;19.046;2022-10-19T02:20:36;2.88;;;2.63;;
46348;SDS011;32057;47.830;19.046;2022-10-19T02:23:03;4.95;;;3.83;;
46348;SDS011;32057;47.830;19.046;2022-10-19T02:25:30;3.25;;;2.95;;
46348;SDS011;32057;47.830;19.046;2022-10-19T02:27:56;4.70;;;2.85;;
46348;SDS011;32057;47.830;19.046;2022-10-19T02:30:22;3.67;;;3.38;;
46348;SDS011;32057;47.830;19.046;2022-10-19T02:32:48;3.13;;;2.65;;
46348;SDS011;32057;47.830;19.046;2022-10-19T02:35:14;3.85;;;3.35;;
46348;SDS011;32057;47.830;19.046;2022-10-19T02:37:40;7.13;;;2.38;;
46348;SDS011;32057;47.830;19.046;2022-10-19T02:40:06;5.03;;;2.97;;
46348;SDS011;32057;47.830;19.046;2022-10-19T02:42:34;4.10;;;2.60;;
46348;SDS011;32057;47.830;19.046;2022-10-19T02:45:07;3.80;;;3.20;;
46348;SDS011;32057;47.830;19.046;2022-10-19T02:47:52;5.38;;;3.53;;
46348;SDS011;32057;47.830;19.046;2022-10-19T02:50:22;4.78;;;4.10;;
46348;SDS011;32057;47.830;19.046;2022-10-19T02:52:48;4.35;;;3.35;;
46348;SDS011;32057;47.830;19.046;2022-10-19T02:55:13;3.38;;;3.08;;
46348;SDS011;32057;47.830;19.046;2022-10-19T02:57:39;4.05;;;2.97;;
46348;SDS011;32057;47.830;19.046;2022-10-19T03:00:05;2.92;;;2.65;;
46348;SDS011;32057;47.830;19.046;2022-10-19T03:02:31;4.88;;;4.05;;
46348;SDS011;32057;47.830;19.046;2022-10-19T03:04:57;5.70;;;2.83;;
46348;SDS011;32057;47.830;19.046;2022-10-19T03:07:22;4.80;;;3.00;;
46348;SDS011;32057;47.830;19.046;2022-10-19T03:09:48;3.83;;;2.88;;
46348;SDS011;32057;47.830;19.046;2022-10-19T03:12:15;5.65;;;4.15;;
46348;SDS011;32057;47.830;19.046;2022-10-19T03:14:40;5.30;;;4.68;;
46348;SDS011;32057;47.830;19.046;2022-10-19T03:17:06;5.50;;;4.15;;
46348;SDS011;32057;47.830;19.046;2022-10-19T03:19:32;4.25;;;3.10;;
46348;SDS011;32057;47.830;19.046;2022-10-19T03:21:59;3.97;;;2.90;;
46348;SDS011;32057;47.830;19.046;2022-10-19T03:24:24;4.38;;;3.40;;
46348;SDS011;32057;47.830;19.046;2022-10-19T03:26:50;4.18;;;3.33;;
46348;SDS011;32057;47.830;19.046;2022-10-19T03:29:15;5.57;;;4.43;;
46348;SDS011;32057;47.830;19.046;2022-10-19T03:31:40;4.13;;;3.60;;
46348;SDS011;32057;47.830;19.046;2022-10-19T03:34:06;5.25;;;3.50;;
46348;SDS011;32057;47.830;19.046;2022-10-19T03:36:32;3.15;;;2.55;;
46348;SDS011;32057;47.830;19.046;2022-10-19T03:39:00;3.38;;;3.08;;
46348;SDS011;32057;47.830;19.046;2022-10-19T03:41:29;4.38;;;3.30;;
46348;SDS011;32057;47.830;19.046;2022-10-19T03:43:57;3.15;;;2.85;;
46348;SDS011;32057;47.830;19.046;2022-10-19T03:46:23;4.38;;;2.97;;
46348;SDS011;32057;47.830;19.046;2022-10-19T03:48:49;5.15;;;3.80;;
46348;SDS011;32057;47.830;19.046;2022-10-19T03:51:16;5.45;;;3.97;;
46348;SDS011;32057;47.830;19.046;2022-10-19T03:53:43;3.05;;;2.75;;
46348;SDS011;32057;47.830;19.046;2022-10-19T03:56:14;4.78;;;3.38;;
46348;SDS011;32057;47.830;19.046;2022-10-19T03:58:42;3.85;;;2.80;;
46348;SDS011;32057;47.830;19.046;2022-10-19T04:01:10;3.72;;;2.75;;
46348;SDS011;32057;47.830;19.046;2022-10-19T04:03:40;2.90;;;2.67;;
46348;SDS011;32057;47.830;19.046;2022-10-19T04:06:06;8.20;;;3.95;;
46348;SDS011;32057;47.830;19.046;2022-10-19T04:08:35;5.00;;;3.75;;
46348;SDS011;32057;47.830;19.046;2022-10-19T04:11:01;7.30;;;3.13;;
46348;SDS011;32057;47.830;19.046;2022-10-19T04:13:28;2.90;;;2.60;;
46348;SDS011;32057;47.830;19.046;2022-10-19T04:15:54;3.53;;;2.97;;
46348;SDS011;32057;47.830;19.046;2022-10-19T04:18:20;5.25;;;2.60;;
46348;SDS011;32057;47.830;19.046;2022-10-19T04:20:45;3.97;;;3.00;;
46348;SDS011;32057;47.830;19.046;2022-10-19T04:23:11;5.15;;;3.17;;
46348;SDS011;32057;47.830;19.046;2022-10-19T04:25:36;3.22;;;2.92;;
46348;SDS011;32057;47.830;19.046;2022-10-19T04:28:01;3.33;;;2.65;;
46348;SDS011;32057;47.830;19.046;2022-10-19T04:30:27;2.42;;;2.22;;
46348;SDS011;32057;47.830;19.046;2022-10-19T04:32:52;2.50;;;1.75;;
46348;SDS011;32057;47.830;19.046;2022-10-19T04:35:17;2.25;;;2.05;;
46348;SDS011;32057;47.830;19.046;2022-10-19T04:37:43;2.40;;;2.20;;
46348;SDS011;32057;47.830;19.046;2022-10-19T04:40:08;3.10;;;2.78;;
46348;SDS011;32057;47.830;19.046;2022-10-19T04:42:35;2.78;;;2.03;;
46348;SDS011;32057;47.830;19.046;2022-10-19T04:45:00;3.33;;;3.03;;
46348;SDS011;32057;47.830;19.046;2022-10-19T04:47:25;2.58;;;2.38;;
46348;SDS011;32057;47.830;19.046;2022-10-19T04:49:52;2.30;;;2.10;;
46348;SDS011;32057;47.830;19.046;2022-10-19T04:52:18;2.78;;;2.50;;
46348;SDS011;32057;47.830;19.046;2022-10-19T04:54:44;3.72;;;2.58;;
46348;SDS011;32057;47.830;19.046;2022-10-19T04:57:09;2.50;;;2.20;;
46348;SDS011;32057;47.830;19.046;2022-10-19T04:59:35;1.77;;;1.65;;
46348;SDS011;32057;47.830;19.046;2022-10-19T05:02:00;2.88;;;2.58;;
46348;SDS011;32057;47.830;19.046;2022-10-19T05:04:26;2.92;;;2.65;;
46348;SDS011;32057;47.830;19.046;2022-10-19T05:06:51;2.65;;;2.05;;
46348;SDS011;32057;47.830;19.046;2022-10-19T05:09:16;3.38;;;2.40;;
46348;SDS011;32057;47.830;19.046;2022-10-19T05:11:42;2.58;;;2.38;;
46348;SDS011;32057;47.830;19.046;2022-10-19T05:14:07;2.08;;;1.67;;
46348;SDS011;32057;47.830;19.046;2022-10-19T05:16:33;2.83;;;2.08;;
46348;SDS011;32057;47.830;19.046;2022-10-19T05:18:58;2.70;;;2.28;;
46348;SDS011;32057;47.830;19.046;2022-10-19T05:21:24;5.28;;;3.45;;
46348;SDS011;32057;47.830;19.046;2022-10-19T05:23:51;2.30;;;2.10;;
46348;SDS011;32057;47.830;19.046;2022-10-19T05:26:19;4.07;;;1.98;;
46348;SDS011;32057;47.830;19.046;2022-10-19T05:28:49;2.47;;;2.28;;
46348;SDS011;32057;47.830;19.046;2022-10-19T05:31:20;3.95;;;2.25;;
46348;SDS011;32057;47.830;19.046;2022-10-19T05:33:47;3.72;;;3.42;;
46348;SDS011;32057;47.830;19.046;2022-10-19T05:38:40;2.53;;;2.08;;
46348;SDS011;32057;47.830;19.046;2022-10-19T05:41:06;2.67;;;1.92;;
46348;SDS011;32057;47.830;19.046;2022-10-19T05:43:31;3.97;;;2.28;;
46348;SDS011;32057;47.830;19.046;2022-10-19T05:46:01;4.93;;;4.13;;
46348;SDS011;32057;47.830;19.046;2022-10-19T05:48:28;2.38;;;2.17;;
46348;SDS011;32057;47.830;19.046;2022-10-19T05:50:56;2.95;;;2.67;;
46348;SDS011;32057;47.830;19.046;2022-10-19T05:53:22;3.75;;;2.15;;
46348;SDS011;32057;47.830;19.046;2022-10-19T05:55:47;3.17;;;2.75;;
46348;SDS011;32057;47.830;19.046;2022-10-19T05:58:13;8.20;;;5.03;;
46348;SDS011;32057;47.830;19.046;2022-10-19T06:00:38;3.33;;;3.03;;
46348;SDS011;32057;47.830;19.046;2022-10-19T06:03:03;5.18;;;3.92;;
46348;SDS011;32057;47.830;19.046;2022-10-19T06:05:29;6.30;;;4.32;;
46348;SDS011;32057;47.830;19.046;2022-10-19T06:07:54;7.88;;;4.50;;
46348;SDS011;32057;47.830;19.046;2022-10-19T06:10:20;8.40;;;4.82;;
46348;SDS011;32057;47.830;19.046;2022-10-19T06:12:45;4.75;;;4.07;;
46348;SDS011;32057;47.830;19.046;2022-10-19T06:15:11;11.38;;;4.72;;
46348;SDS011;32057;47.830;19.046;2022-10-19T06:17:36;6.85;;;4.85;;
46348;SDS011;32057;47.830;19.046;2022-10-19T06:20:02;5.70;;;4.03;;
46348;SDS011;32057;47.830;19.046;2022-10-19T06:22:28;5.00;;;4.38;;
46348;SDS011;32057;47.830;19.046;2022-10-19T06:24:53;8.40;;;4.18;;
46348;SDS011;32057;47.830;19.046;2022-10-19T06:27:20;3.97;;;3.58;;
46348;SDS011;32057;47.830;19.046;2022-10-19T06:29:45;6.43;;;4.07;;
46348;SDS011;32057;47.830;19.046;2022-10-19T06:32:11;3.78;;;3.42;;
46348;SDS011;32057;47.830;19.046;2022-10-19T06:34:36;4.40;;;3.72;;
46348;SDS011;32057;47.830;19.046;2022-10-19T06:37:02;5.05;;;4.28;;
46348;SDS011;32057;47.830;19.046;2022-10-19T06:39:27;5.70;;;3.78;;
46348;SDS011;32057;47.830;19.046;2022-10-19T06:41:52;5.30;;;4.05;;
46348;SDS011;32057;47.830;19.046;2022-10-19T06:44:18;6.13;;;3.78;;
46348;SDS011;32057;47.830;19.046;2022-10-19T06:46:43;5.72;;;4.03;;
46348;SDS011;32057;47.830;19.046;2022-10-19T06:49:12;7.32;;;4.40;;
46348;SDS011;32057;47.830;19.046;2022-10-19T06:51:38;9.60;;;3.58;;
46348;SDS011;32057;47.830;19.046;2022-10-19T06:54:04;3.95;;;3.55;;
46348;SDS011;32057;47.830;19.046;2022-10-19T06:56:30;4.88;;;4.18;;
46348;SDS011;32057;47.830;19.046;2022-10-19T06:58:56;6.38;;;4.00;;
46348;SDS011;32057;47.830;19.046;2022-10-19T07:01:22;4.63;;;3.83;;
46348;SDS011;32057;47.830;19.046;2022-10-19T07:03:49;7.40;;;5.05;;
46348;SDS011;32057;47.830;19.046;2022-10-19T07:06:16;4.35;;;3.28;;
46348;SDS011;32057;47.830;19.046;2022-10-19T07:08:41;5.15;;;3.63;;
46348;SDS011;32057;47.830;19.046;2022-10-19T07:11:08;5.22;;;4.15;;
46348;SDS011;32057;47.830;19.046;2022-10-19T07:13:36;3.80;;;3.45;;
46348;SDS011;32057;47.830;19.046;2022-10-19T07:16:06;6.10;;;3.25;;
46348;SDS011;32057;47.830;19.046;2022-10-19T07:18:35;4.95;;;4.38;;
46348;SDS011;32057;47.830;19.046;2022-10-19T07:21:03;4.53;;;3.90;;
46348;SDS011;32057;47.830;19.046;2022-10-19T07:23:31;4.47;;;4.03;;
46348;SDS011;32057;47.830;19.046;2022-10-19T07:26:02;5.07;;;3.78;;
46348;SDS011;32057;47.830;19.046;2022-10-19T07:28:29;5.40;;;3.92;;
46348;SDS011;32057;47.830;19.046;2022-10-19T07:30:55;6.50;;;4.72;;
46348;SDS011;32057;47.830;19.046;2022-10-19T07:33:20;12.57;;;4.70;;
46348;SDS011;32057;47.830;19.046;2022-10-19T07:35:46;4.95;;;4.15;;
46348;SDS011;32057;47.830;19.046;2022-10-19T07:38:11;3.92;;;2.75;;
46348;SDS011;32057;47.830;19.046;2022-10-19T07:40:37;4.00;;;3.28;;
46348;SDS011;32057;47.830;19.046;2022-10-19T07:43:02;4.10;;;3.35;;
46348;SDS011;32057;47.830;19.046;2022-10-19T07:45:28;4.00;;;3.60;;
46348;SDS011;32057;47.830;19.046;2022-10-19T07:47:54;4.43;;;3.22;;
46348;SDS011;32057;47.830;19.046;2022-10-19T07:50:19;5.15;;;3.75;;
46348;SDS011;32057;47.830;19.046;2022-10-19T07:52:46;4.55;;;3.53;;
46348;SDS011;32057;47.830;19.046;2022-10-19T07:55:12;3.88;;;3.30;;
46348;SDS011;32057;47.830;19.046;2022-10-19T07:57:37;3.78;;;3.33;;
46348;SDS011;32057;47.830;19.046;2022-10-19T08:00:03;8.10;;;3.22;;
46348;SDS011;32057;47.830;19.046;2022-10-19T08:02:28;8.43;;;3.70;;
46348;SDS011;32057;47.830;19.046;2022-10-19T08:04:54;9.27;;;4.10;;
46348;SDS011;32057;47.830;19.046;2022-10-19T08:07:19;5.10;;;3.47;;
46348;SDS011;32057;47.830;19.046;2022-10-19T08:09:45;5.28;;;3.13;;
46348;SDS011;32057;47.830;19.046;2022-10-19T08:12:10;8.05;;;3.17;;
46348;SDS011;32057;47.830;19.046;2022-10-19T08:14:35;9.88;;;3.00;;
46348;SDS011;32057;47.830;19.046;2022-10-19T08:17:01;3.63;;;3.08;;
46348;SDS011;32057;47.830;19.046;2022-10-19T08:19:26;3.13;;;2.72;;
46348;SDS011;32057;47.830;19.046;2022-10-19T08:21:52;4.47;;;3.40;;
46348;SDS011;32057;47.830;19.046;2022-10-19T08:24:17;5.80;;;3.85;;
46348;SDS011;32057;47.830;19.046;2022-10-19T08:26:44;3.75;;;2.90;;
46348;SDS011;32057;47.830;19.046;2022-10-19T08:29:14;2.80;;;2.45;;
46348;SDS011;32057;47.830;19.046;2022-10-19T08:31:42;6.28;;;3.13;;
46348;SDS011;32057;47.830;19.046;2022-10-19T08:34:09;6.70;;;2.88;;
46348;SDS011;32057;47.830;19.046;2022-10-19T08:36:35;3.88;;;2.22;;
46348;SDS011;32057;47.830;19.046;2022-10-19T08:39:02;2.63;;;2.28;;
46348;SDS011;32057;47.830;19.046;2022-10-19T08:44:01;3.75;;;2.70;;
46348;SDS011;32057;47.830;19.046;2022-10-19T08:49:14;7.55;;;2.78;;
46348;SDS011;32057;47.830;19.046;2022-10-19T08:51:45;5.35;;;2.70;;
46348;SDS011;32057;47.830;19.046;2022-10-19T08:54:16;2.67;;;2.22;;
46348;SDS011;32057;47.830;19.046;2022-10-19T08:56:46;3.45;;;2.65;;
46348;SDS011;32057;47.830;19.046;2022-10-19T09:02:15;3.22;;;1.85;;
46348;SDS011;32057;47.830;19.046;2022-10-19T09:04:52;2.92;;;2.05;;
46348;SDS011;32057;47.830;19.046;2022-10-19T09:07:26;1.80;;;1.65;;
46348;SDS011;32057;47.830;19.046;2022-10-19T09:10:17;2.13;;;1.92;;
46348;SDS011;32057;47.830;19.046;2022-10-19T09:12:46;1.95;;;1.80;;
46348;SDS011;32057;47.830;19.046;2022-10-19T09:15:17;1.85;;;1.75;;
46348;SDS011;32057;47.830;19.046;2022-10-19T09:17:44;1.48;;;1.38;;
46348;SDS011;32057;47.830;19.046;2022-10-19T09:20:14;1.52;;;1.42;;
46348;SDS011;32057;47.830;19.046;2022-10-19T09:22:42;1.60;;;1.38;;
46348;SDS011;32057;47.830;19.046;2022-10-19T09:27:39;3.17;;;1.40;;
46348;SDS011;32057;47.830;19.046;2022-10-19T09:30:15;2.63;;;2.25;;
46348;SDS011;32057;47.830;19.046;2022-10-19T09:32:46;4.70;;;1.73;;
46348;SDS011;32057;47.830;19.046;2022-10-19T09:37:43;2.30;;;1.23;;
46348;SDS011;32057;47.830;19.046;2022-10-19T09:40:18;1.00;;;1.00;;
46348;SDS011;32057;47.830;19.046;2022-10-19T09:42:47;0.90;;;0.90;;
46348;SDS011;32057;47.830;19.046;2022-10-19T09:45:28;1.63;;;1.52;;
46348;SDS011;32057;47.830;19.046;2022-10-19T09:51:12;0.80;;;0.80;;
46348;SDS011;32057;47.830;19.046;2022-10-19T09:53:43;0.70;;;0.70;;
46348;SDS011;32057;47.830;19.046;2022-10-19T09:56:19;1.65;;;1.05;;
46348;SDS011;32057;47.830;19.046;2022-10-19T09:58:49;0.80;;;0.80;;
46348;SDS011;32057;47.830;19.046;2022-10-19T10:01:28;0.50;;;0.50;;
46348;SDS011;32057;47.830;19.046;2022-10-19T10:06:35;0.68;;;0.63;;
46348;SDS011;32057;47.830;19.046;2022-10-19T10:09:02;0.75;;;0.68;;
46348;SDS011;32057;47.830;19.046;2022-10-19T10:11:33;0.90;;;0.90;;
46348;SDS011;32057;47.830;19.046;2022-10-19T10:14:19;1.05;;;0.95;;
46348;SDS011;32057;47.830;19.046;2022-10-19T10:16:54;2.00;;;0.65;;
46348;SDS011;32057;47.830;19.046;2022-10-19T10:19:25;0.68;;;0.68;;
46348;SDS011;32057;47.830;19.046;2022-10-19T10:21:53;0.55;;;0.55;;
46348;SDS011;32057;47.830;19.046;2022-10-19T10:24:21;0.88;;;0.68;;
46348;SDS011;32057;47.830;19.046;2022-10-19T10:26:49;0.75;;;0.75;;
46348;SDS011;32057;47.830;19.046;2022-10-19T10:29:17;1.23;;;0.93;;
46348;SDS011;32057;47.830;19.046;2022-10-19T10:32:12;0.60;;;0.60;;
46348;SDS011;32057;47.830;19.046;2022-10-19T10:34:47;0.80;;;0.80;;
46348;SDS011;32057;47.830;19.046;2022-10-19T10:38:02;0.73;;;0.73;;
46348;SDS011;32057;47.830;19.046;2022-10-19T10:42:44;1.20;;;0.95;;
46348;SDS011;32057;47.830;19.046;2022-10-19T10:47:57;1.05;;;0.85;;
46348;SDS011;32057;47.830;19.046;2022-10-19T10:50:31;2.08;;;0.60;;
46348;SDS011;32057;47.830;19.046;2022-10-19T10:55:27;0.77;;;0.77;;
46348;SDS011;32057;47.830;19.046;2022-10-19T10:58:15;2.63;;;1.23;;
46348;SDS011;32057;47.830;19.046;2022-10-19T11:00:43;0.35;;;0.30;;
46348;SDS011;32057;47.830;19.046;2022-10-19T11:03:15;1.77;;;0.93;;
46348;SDS011;32057;47.830;19.046;2022-10-19T11:05:47;0.75;;;0.73;;
46348;SDS011;32057;47.830;19.046;2022-10-19T11:13:44;0.77;;;0.77;;
46348;SDS011;32057;47.830;19.046;2022-10-19T11:16:17;0.85;;;0.85;;
46348;SDS011;32057;47.830;19.046;2022-10-19T11:18:47;1.48;;;0.88;;
46348;SDS011;32057;47.830;19.046;2022-10-19T11:21:19;0.85;;;0.85;;
46348;SDS011;32057;47.830;19.046;2022-10-19T11:24:00;1.10;;;0.82;;
46348;SDS011;32057;47.830;19.046;2022-10-19T11:26:40;0.73;;;0.73;;
46348;SDS011;32057;47.830;19.046;2022-10-19T11:32:22;0.88;;;0.88;;
46348;SDS011;32057;47.830;19.046;2022-10-19T11:40:36;0.65;;;0.65;;
46348;SDS011;32057;47.830;19.046;2022-10-19T11:45:42;0.57;;;0.57;;
46348;SDS011;32057;47.830;19.046;2022-10-19T11:48:31;0.65;;;0.65;;
46348;SDS011;32057;47.830;19.046;2022-10-19T11:51:20;1.05;;;0.90;;
46348;SDS011;32057;47.830;19.046;2022-10-19T11:56:26;1.17;;;0.95;;
46348;SDS011;32057;47.830;19.046;2022-10-19T11:59:14;2.60;;;1.60;;
46348;SDS011;32057;47.830;19.046;2022-10-19T12:12:23;4.30;;;2.13;;
46348;SDS011;32057;47.830;19.046;2022-10-19T12:14:59;4.50;;;1.80;;
46348;SDS011;32057;47.830;19.046;2022-10-19T12:17:37;3.22;;;1.33;;
46348;SDS011;32057;47.830;19.046;2022-10-19T12:20:07;1.38;;;1.23;;
46348;SDS011;32057;47.830;19.046;2022-10-19T12:22:40;0.63;;;0.63;;
46348;SDS011;32057;47.830;19.046;2022-10-19T12:25:10;0.88;;;0.88;;
46348;SDS011;32057;47.830;19.046;2022-10-19T12:27:39;1.38;;;0.80;;
46348;SDS011;32057;47.830;19.046;2022-10-19T12:30:13;0.93;;;0.93;;
46348;SDS011;32057;47.830;19.046;2022-10-19T12:32:46;3.13;;;1.00;;
46348;SDS011;32057;47.830;19.046;2022-10-19T12:35:26;2.13;;;0.85;;
46348;SDS011;32057;47.830;19.046;2022-10-19T12:38:32;2.95;;;2.75;;
46348;SDS011;32057;47.830;19.046;2022-10-19T12:41:12;0.73;;;0.73;;
46348;SDS011;32057;47.830;19.046;2022-10-19T12:46:51;0.65;;;0.63;;
46348;SDS011;32057;47.830;19.046;2022-10-19T12:51:51;1.05;;;0.90;;
46348;SDS011;32057;47.830;19.046;2022-10-19T12:54:22;1.30;;;1.20;;
46348;SDS011;32057;47.830;19.046;2022-10-19T12:56:53;4.40;;;1.98;;
46348;SDS011;32057;47.830;19.046;2022-10-19T13:01:54;1.92;;;1.55;;
46348;SDS011;32057;47.830;19.046;2022-10-19T13:09:32;0.80;;;0.80;;
46348;SDS011;32057;47.830;19.046;2022-10-19T13:27:46;2.60;;;1.25;;
46348;SDS011;32057;47.830;19.046;2022-10-19T13:41:04;0.80;;;0.70;;
46348;SDS011;32057;47.830;19.046;2022-10-19T13:43:37;4.03;;;1.17;;
46348;SDS011;32057;47.830;19.046;2022-10-19T14:02:34;0.98;;;0.98;;
46348;SDS011;32057;47.830;19.046;2022-10-19T14:05:54;0.82;;;0.82;;
46348;SDS011;32057;47.830;19.046;2022-10-19T14:11:52;5.82;;;1.25;;
46348;SDS011;32057;47.830;19.046;2022-10-19T14:14:37;1.25;;;1.17;;
46348;SDS011;32057;47.830;19.046;2022-10-19T14:20:17;1.38;;;1.13;;
46348;SDS011;32057;47.830;19.046;2022-10-19T14:22:50;0.70;;;0.68;;
46348;SDS011;32057;47.830;19.046;2022-10-19T14:25:17;6.30;;;1.27;;
46348;SDS011;32057;47.830;19.046;2022-10-19T14:27:45;1.25;;;1.00;;
46348;SDS011;32057;47.830;19.046;2022-10-19T14:30:22;2.35;;;1.08;;
46348;SDS011;32057;47.830;19.046;2022-10-19T14:32:49;1.50;;;1.40;;
46348;SDS011;32057;47.830;19.046;2022-10-19T14:35:48;8.32;;;2.58;;
46348;SDS011;32057;47.830;19.046;2022-10-19T14:38:35;0.73;;;0.73;;
46348;SDS011;32057;47.830;19.046;2022-10-19T14:41:03;2.47;;;1.98;;
46348;SDS011;32057;47.830;19.046;2022-10-19T14:43:30;6.13;;;1.20;;
46348;SDS011;32057;47.830;19.046;2022-10-19T14:46:08;1.23;;;0.70;;
46348;SDS011;32057;47.830;19.046;2022-10-19T14:48:45;0.65;;;0.65;;
46348;SDS011;32057;47.830;19.046;2022-10-19T14:53:52;0.88;;;0.77;;
46348;SDS011;32057;47.830;19.046;2022-10-19T14:56:30;0.60;;;0.60;;
46348;SDS011;32057;47.830;19.046;2022-10-19T14:59:04;1.08;;;0.88;;
46348;SDS011;32057;47.830;19.046;2022-10-19T15:01:38;0.85;;;0.85;;
46348;SDS011;32057;47.830;19.046;2022-10-19T15:04:05;0.70;;;0.70;;
46348;SDS011;32057;47.830;19.046;2022-10-19T15:06:31;1.27;;;1.20;;
46348;SDS011;32057;47.830;19.046;2022-10-19T15:09:01;3.30;;;1.60;;
46348;SDS011;32057;47.830;19.046;2022-10-19T15:11:35;1.48;;;1.15;;
46348;SDS011;32057;47.830;19.046;2022-10-19T15:14:14;0.70;;;0.68;;
46348;SDS011;32057;47.830;19.046;2022-10-19T15:16:42;1.27;;;1.17;;
46348;SDS011;32057;47.830;19.046;2022-10-19T15:19:38;1.23;;;0.98;;
46348;SDS011;32057;47.830;19.046;2022-10-19T15:27:41;6.45;;;1.38;;
46348;SDS011;32057;47.830;19.046;2022-10-19T15:32:42;1.98;;;0.88;;
46348;SDS011;32057;47.830;19.046;2022-10-19T15:35:10;1.38;;;1.27;;
46348;SDS011;32057;47.830;19.046;2022-10-19T15:37:43;1.17;;;1.05;;
46348;SDS011;32057;47.830;19.046;2022-10-19T15:40:16;2.50;;;1.88;;
46348;SDS011;32057;47.830;19.046;2022-10-19T15:42:46;2.03;;;1.10;;
46348;SDS011;32057;47.830;19.046;2022-10-19T15:45:26;1.75;;;1.23;;
46348;SDS011;32057;47.830;19.046;2022-10-19T15:50:36;1.70;;;1.52;;
46348;SDS011;32057;47.830;19.046;2022-10-19T15:53:06;1.27;;;1.17;;
46348;SDS011;32057;47.830;19.046;2022-10-19T15:55:31;1.75;;;1.48;;
46348;SDS011;32057;47.830;19.046;2022-10-19T15:57:57;3.20;;;1.38;;
46348;SDS011;32057;47.830;19.046;2022-10-19T16:00:23;1.80;;;1.70;;
46348;SDS011;32057;47.830;19.046;2022-10-19T16:02:49;2.28;;;2.08;;
46348;SDS011;32057;47.830;19.046;2022-10-19T16:05:14;1.30;;;1.20;;
46348;SDS011;32057;47.830;19.046;2022-10-19T16:07:39;1.60;;;1.48;;
46348;SDS011;32057;47.830;19.046;2022-10-19T16:10:05;1.02;;;1.00;;
46348;SDS011;32057;47.830;19.046;2022-10-19T16:12:32;1.58;;;1.48;;
46348;SDS011;32057;47.830;19.046;2022-10-19T16:14:58;2.30;;;1.60;;
46348;SDS011;32057;47.830;19.046;2022-10-19T16:17:23;1.95;;;1.67;;
46348;SDS011;32057;47.830;19.046;2022-10-19T16:19:48;5.60;;;2.38;;
46348;SDS011;32057;47.830;19.046;2022-10-19T16:22:14;3.35;;;2.13;;
46348;SDS011;32057;47.830;19.046;2022-10-19T16:24:40;2.33;;;1.52;;
46348;SDS011;32057;47.830;19.046;2022-10-19T16:27:06;1.48;;;1.35;;
46348;SDS011;32057;47.830;19.046;2022-10-19T16:29:33;2.80;;;1.30;;
46348;SDS011;32057;47.830;19.046;2022-10-19T16:32:00;11.13;;;3.13;;
46348;SDS011;32057;47.830;19.046;2022-10-19T16:34:28;1.48;;;1.02;;
46348;SDS011;32057;47.830;19.046;2022-10-19T16:36:53;1.25;;;1.15;;
46348;SDS011;32057;47.830;19.046;2022-10-19T16:39:19;0.82;;;0.82;;
46348;SDS011;32057;47.830;19.046;2022-10-19T16:41:44;1.83;;;1.40;;
46348;SDS011;32057;47.830;19.046;2022-10-19T16:44:10;3.15;;;2.00;;
46348;SDS011;32057;47.830;19.046;2022-10-19T16:46:37;4.22;;;2.65;;
46348;SDS011;32057;47.830;19.046;2022-10-19T16:49:03;2.15;;;2.00;;
46348;SDS011;32057;47.830;19.046;2022-10-19T16:51:32;1.25;;;0.90;;
46348;SDS011;32057;47.830;19.046;2022-10-19T16:54:00;2.92;;;1.33;;
46348;SDS011;32057;47.830;19.046;2022-10-19T16:56:27;4.50;;;1.70;;
46348;SDS011;32057;47.830;19.046;2022-10-19T16:58:59;2.50;;;1.63;;
46348;SDS011;32057;47.830;19.046;2022-10-19T17:01:30;1.25;;;1.15;;
46348;SDS011;32057;47.830;19.046;2022-10-19T17:04:04;1.75;;;1.45;;
46348;SDS011;32057;47.830;19.046;2022-10-19T17:06:31;1.95;;;1.30;;
46348;SDS011;32057;47.830;19.046;2022-10-19T17:08:58;1.38;;;1.27;;
46348;SDS011;32057;47.830;19.046;2022-10-19T17:11:35;2.08;;;1.45;;
46348;SDS011;32057;47.830;19.046;2022-10-19T17:14:06;1.33;;;1.23;;
46348;SDS011;32057;47.830;19.046;2022-10-19T17:16:35;2.50;;;1.65;;
46348;SDS011;32057;47.830;19.046;2022-10-19T17:19:01;3.88;;;2.00;;
46348;SDS011;32057;47.830;19.046;2022-10-19T17:21:30;2.53;;;1.90;;